Butte City, California
Current Conditions -  °F | °C
As of 1:53 PM on Friday 19 Dec 2014 (Local Time) from KOVE Reporting Station
Overcast Overcast  
Wind Chill: 56°   Ceiling: 2200
Heat Index: 56°   Visibility: 10mi
Dew Point: 48°   Wind: 18mph
Humidity: 75%   Direction: 150°SSE
Pressure: 30.15"   Gusts: NA
Location:  39.46°N, 121.99°W
Report Text: KOVE 192153Z AUTO 15016KT 10SM OVC022 13/09 A3015 RMK AO2 SLP211 T01330089
Loading
Personal Weather Stations






























Interactive Weather Map New forecast layout! Learn more

10-Day Weather Forecast

Advertisements
Track Severe Weather on mobile